Time;durP1;ratioP1;P1;durP2;ratioP2;P2;SDS_P1;SDS_P2;PMS_P1;PMS_P2;Temp;Humidity;BMP_temperature;BMP_pressure;BME280_temperature;BME280_humidity;BME280_pressure;Samples;Min_cycle;Max_cycle;Signal;HPM_P1;HPM_P2
2023/05/13 00:01:06;;;;;;;29.30;15.77;;;;;;;;;;5030762;28;20469;-67
2023/05/13 00:03:33;;;;;;;29.33;16.07;;;;;;;;;;5029947;28;20504;-67
2023/05/13 00:06:02;;;;;;;31.97;16.17;;;;;;;;;;5013030;28;20445;-67
2023/05/13 00:08:29;;;;;;;28.27;15.27;;;;;;;;;;5028616;28;20961;-67
2023/05/13 00:10:55;;;;;;;27.97;15.30;;;;;;;;;;5030180;28;20457;-67
2023/05/13 00:13:22;;;;;;;27.97;14.60;;;;;;;;;;5028864;28;20465;-67
2023/05/13 00:15:48;;;;;;;27.57;15.23;;;;;;;;;;5030156;28;21138;-67
2023/05/13 00:18:15;;;;;;;35.70;15.57;;;;;;;;;;5030004;28;20521;-67
2023/05/13 00:20:42;;;;;;;24.73;13.97;;;;;;;;;;5030050;28;20480;-67
2023/05/13 00:23:08;;;;;;;24.60;14.33;;;;;;;;;;5029606;28;20494;-67
2023/05/13 00:25:36;;;;;;;32.90;14.60;;;;;;;;;;5011605;28;21019;-67
2023/05/13 00:28:03;;;;;;;26.60;14.33;;;;;;;;;;5010320;28;20454;-67
2023/05/13 00:30:30;;;;;;;28.63;15.33;;;;;;;;;;5008747;28;20454;-67
2023/05/13 00:32:57;;;;;;;27.20;14.83;;;;;;;;;;5010057;28;20842;-67
2023/05/13 00:35:25;;;;;;;23.60;14.10;;;;;;;;;;4992987;28;20423;-67
2023/05/13 00:37:52;;;;;;;26.83;14.83;;;;;;;;;;5025158;28;20226;-67
2023/05/13 00:40:19;;;;;;;26.70;14.80;;;;;;;;;;5009597;28;20446;-67
2023/05/13 00:42:46;;;;;;;22.87;13.70;;;;;;;;;;5009982;28;21299;-67
2023/05/13 00:45:13;;;;;;;26.20;14.10;;;;;;;;;;4992514;28;20659;-67
2023/05/13 00:47:40;;;;;;;27.43;14.30;;;;;;;;;;5008420;28;20779;-67
2023/05/13 00:50:07;;;;;;;24.70;14.57;;;;;;;;;;4992201;28;21059;-67
2023/05/13 00:52:34;;;;;;;23.80;14.73;;;;;;;;;;4975763;28;20470;-67
2023/05/13 00:55:01;;;;;;;28.20;14.17;;;;;;;;;;4992596;28;20437;-67
2023/05/13 00:57:28;;;;;;;28.10;14.97;;;;;;;;;;5010427;28;20503;-67
2023/05/13 00:59:55;;;;;;;31.00;14.80;;;;;;;;;;5029488;28;20436;-67
2023/05/13 01:02:40;;;;;;;24.20;15.43;;;;;;;;;;5029344;28;20499;-67
2023/05/13 01:05:11;;;;;;;23.23;15.13;;;;;;;;;;5011695;28;20460;-67
2023/05/13 01:07:47;;;;;;;20.53;14.00;;;;;;;;;;5029086;28;20209;-67
2023/05/13 01:10:19;;;;;;;27.10;15.77;;;;;;;;;;5028682;28;20504;-67
2023/05/13 01:12:46;;;;;;;22.03;15.10;;;;;;;;;;5012175;28;20477;-67
2023/05/13 01:15:14;;;;;;;25.63;15.43;;;;;;;;;;5026971;28;20511;-67
2023/05/13 01:17:40;;;;;;;19.97;13.87;;;;;;;;;;5029009;28;20515;-67
2023/05/13 01:20:07;;;;;;;21.57;13.67;;;;;;;;;;5029109;28;20488;-66
2023/05/13 01:22:34;;;;;;;20.70;13.93;;;;;;;;;;5011507;28;20430;-67
2023/05/13 01:25:00;;;;;;;26.43;14.00;;;;;;;;;;5032232;28;20489;-66
2023/05/13 01:27:27;;;;;;;20.73;13.90;;;;;;;;;;5015306;28;20446;-67
2023/05/13 01:29:54;;;;;;;21.20;14.33;;;;;;;;;;5014675;28;20801;-67
2023/05/13 01:32:26;;;;;;;25.47;14.23;;;;;;;;;;5012781;28;20938;-66
2023/05/13 01:34:53;;;;;;;26.93;14.73;;;;;;;;;;4995684;28;20430;-66
2023/05/13 01:37:20;;;;;;;24.70;14.83;;;;;;;;;;4979253;28;20445;-66
2023/05/13 01:39:48;;;;;;;23.83;14.30;;;;;;;;;;4995734;28;20844;-66
2023/05/13 01:42:14;;;;;;;26.03;13.83;;;;;;;;;;4995682;28;20431;-66
2023/05/13 02:16:39;;;;;;;24.03;13.13;;;;;;;;;;5021973;28;20440;-66
2023/05/13 02:19:06;;;;;;;19.63;13.37;;;;;;;;;;5027959;28;20446;-66
2023/05/13 02:21:33;;;;;;;18.47;13.17;;;;;;;;;;5010729;28;20482;-67
2023/05/13 02:24:00;;;;;;;18.67;13.53;;;;;;;;;;5031644;28;20476;-67
2023/05/13 02:26:27;;;;;;;19.17;13.30;;;;;;;;;;5014223;28;20445;-66
2023/05/13 02:28:55;;;;;;;18.33;12.77;;;;;;;;;;5032031;28;20434;-66
2023/05/13 02:31:21;;;;;;;21.73;13.73;;;;;;;;;;5032101;28;20428;-67
2023/05/13 02:33:48;;;;;;;21.30;14.17;;;;;;;;;;5032242;28;20509;-67
2023/05/13 02:36:14;;;;;;;20.67;13.97;;;;;;;;;;5046263;28;20452;-66
2023/05/13 02:38:41;;;;;;;22.17;13.47;;;;;;;;;;5014024;28;20503;-66
2023/05/13 02:41:09;;;;;;;19.10;12.90;;;;;;;;;;5013829;28;20525;-67
2023/05/13 02:43:37;;;;;;;19.93;14.23;;;;;;;;;;5014129;28;20803;-66
2023/05/13 02:46:05;;;;;;;19.43;14.00;;;;;;;;;;5047715;28;20548;-66
2023/05/13 02:48:32;;;;;;;18.07;13.10;;;;;;;;;;5047189;28;20441;-66
2023/05/13 02:51:00;;;;;;;21.50;13.43;;;;;;;;;;5047130;28;20446;-66
2023/05/13 02:53:28;;;;;;;21.43;14.70;;;;;;;;;;5013467;28;20475;-66
2023/05/13 02:55:59;;;;;;;21.00;13.70;;;;;;;;;;5013854;28;20475;-66
2023/05/13 02:58:26;;;;;;;20.23;14.30;;;;;;;;;;5013866;28;20445;-66
2023/05/13 03:00:53;;;;;;;19.87;13.47;;;;;;;;;;4997968;28;20476;-66
2023/05/13 03:03:22;;;;;;;21.70;13.77;;;;;;;;;;4995921;28;20507;-66
2023/05/13 03:05:49;;;;;;;20.67;14.63;;;;;;;;;;4994069;28;20445;-66
2023/05/13 03:08:16;;;;;;;19.57;13.47;;;;;;;;;;5011473;28;20446;-67
2023/05/13 03:10:43;;;;;;;20.13;14.07;;;;;;;;;;5010207;28;20434;-66
2023/05/13 03:13:11;;;;;;;21.93;14.70;;;;;;;;;;5011882;28;20469;-66
2023/05/13 03:15:37;;;;;;;21.20;14.57;;;;;;;;;;4998240;28;20448;-66
2023/05/13 03:18:08;;;;;;;24.07;14.60;;;;;;;;;;5013338;28;20479;-66
2023/05/13 03:20:34;;;;;;;23.10;14.33;;;;;;;;;;5029994;28;20451;-66
2023/05/13 03:23:02;;;;;;;19.30;13.03;;;;;;;;;;4996986;28;20491;-66
2023/05/13 03:25:30;;;;;;;19.47;12.47;;;;;;;;;;5013019;28;20439;-66
2023/05/13 03:27:57;;;;;;;19.77;13.60;;;;;;;;;;5013668;28;20447;-66
2023/05/13 03:30:27;;;;;;;18.30;13.20;;;;;;;;;;5030928;28;20604;-66
2023/05/13 03:33:00;;;;;;;21.67;13.50;;;;;;;;;;5014183;28;20558;-66
2023/05/13 03:35:27;;;;;;;19.67;13.27;;;;;;;;;;5030598;28;20956;-66
2023/05/13 03:37:54;;;;;;;21.50;13.67;;;;;;;;;;5013088;28;20878;-66
2023/05/13 03:40:21;;;;;;;16.87;12.87;;;;;;;;;;4996423;28;20457;-66
2023/05/13 03:42:49;;;;;;;15.70;12.77;;;;;;;;;;4993651;28;20442;-66
2023/05/13 03:45:21;;;;;;;18.30;12.50;;;;;;;;;;5009437;28;20861;-67
2023/05/13 03:47:50;;;;;;;20.17;12.67;;;;;;;;;;4992965;28;20934;-66
2023/05/13 03:50:18;;;;;;;16.77;13.33;;;;;;;;;;4993150;28;20557;-66
2023/05/13 03:52:45;;;;;;;17.53;13.00;;;;;;;;;;5010811;28;20430;-66
2023/05/13 03:55:14;;;;;;;21.20;14.07;;;;;;;;;;4993287;28;20533;-66
2023/05/13 03:57:46;;;;;;;22.57;14.50;;;;;;;;;;4993548;28;20427;-66
2023/05/13 04:00:19;;;;;;;18.97;13.53;;;;;;;;;;5025665;28;21198;-66
2023/05/13 04:02:47;;;;;;;21.50;13.27;;;;;;;;;;5025927;28;20451;-66
2023/05/13 04:05:14;;;;;;;21.33;13.23;;;;;;;;;;4993236;28;20822;-66
2023/05/13 04:07:40;;;;;;;20.60;12.90;;;;;;;;;;4992995;28;20196;-66
2023/05/13 04:10:07;;;;;;;21.67;12.30;;;;;;;;;;5010470;28;20192;-66
2023/05/13 04:12:34;;;;;;;19.13;12.60;;;;;;;;;;5010690;28;20196;-66
2023/05/13 04:15:00;;;;;;;21.07;12.50;;;;;;;;;;4992436;28;20224;-66
2023/05/13 04:17:27;;;;;;;16.13;12.30;;;;;;;;;;5011259;28;20200;-66
2023/05/13 04:19:54;;;;;;;17.63;12.37;;;;;;;;;;5010541;28;20610;-66
2023/05/13 04:22:23;;;;;;;19.03;13.00;;;;;;;;;;5010213;28;20184;-66
2023/05/13 04:24:55;;;;;;;16.57;12.10;;;;;;;;;;5009117;28;20252;-66
2023/05/13 04:27:22;;;;;;;17.40;12.93;;;;;;;;;;4992611;28;20236;-66
2023/05/13 04:29:51;;;;;;;16.73;12.17;;;;;;;;;;5010818;28;20257;-67
2023/05/13 04:32:21;;;;;;;18.47;11.97;;;;;;;;;;5011666;28;20200;-67
2023/05/13 04:34:51;;;;;;;16.17;11.57;;;;;;;;;;5012026;28;20235;-65
2023/05/13 04:37:19;;;;;;;15.57;11.67;;;;;;;;;;5010979;28;20227;-65
2023/05/13 04:39:47;;;;;;;19.43;11.30;;;;;;;;;;5025118;28;20655;-67
2023/05/13 04:42:17;;;;;;;17.80;11.47;;;;;;;;;;5009071;28;20298;-64
2023/05/13 04:44:43;;;;;;;21.60;12.40;;;;;;;;;;5008941;28;20196;-65
2023/05/13 04:47:10;;;;;;;21.97;11.93;;;;;;;;;;5009242;28;20334;-66
2023/05/13 04:49:37;;;;;;;25.73;12.23;;;;;;;;;;5007132;28;20198;-66
2023/05/13 04:52:05;;;;;;;28.30;12.17;;;;;;;;;;5002392;28;20204;-66
2023/05/13 04:54:34;;;;;;;28.13;12.87;;;;;;;;;;5024719;28;20230;-63
2023/05/13 04:57:02;;;;;;;24.60;12.63;;;;;;;;;;5021667;28;20706;-65
2023/05/13 04:59:29;;;;;;;19.67;11.00;;;;;;;;;;5007676;28;20904;-65
2023/05/13 05:01:56;;;;;;;22.43;12.20;;;;;;;;;;5025963;28;20195;-64
2023/05/13 05:04:23;;;;;;;23.83;11.63;;;;;;;;;;5008528;28;20386;-64
2023/05/13 05:06:50;;;;;;;22.03;11.17;;;;;;;;;;5008770;28;20199;-63
2023/05/13 05:09:17;;;;;;;23.73;10.83;;;;;;;;;;5039327;28;20368;-63
2023/05/13 05:11:48;;;;;;;27.67;11.40;;;;;;;;;;5009461;28;20253;-63
2023/05/13 05:14:16;;;;;;;19.40;11.13;;;;;;;;;;5026955;28;20236;-63
2023/05/13 05:16:44;;;;;;;22.53;10.93;;;;;;;;;;5028360;28;20195;-63
2023/05/13 05:19:14;;;;;;;22.90;9.63;;;;;;;;;;4996344;28;20294;-64
2023/05/13 05:21:41;;;;;;;25.50;9.87;;;;;;;;;;5041253;28;20257;-64
2023/05/13 05:24:08;;;;;;;25.63;10.97;;;;;;;;;;4994612;28;20238;-63
2023/05/13 05:26:34;;;;;;;18.50;10.60;;;;;;;;;;5026643;28;20520;-65
2023/05/13 05:29:01;;;;;;;15.10;10.00;;;;;;;;;;5006508;28;20197;-64
2023/05/13 05:31:29;;;;;;;12.27;8.33;;;;;;;;;;5008037;28;20191;-62
2023/05/13 05:34:00;;;;;;;12.53;8.33;;;;;;;;;;5041662;28;20257;-63
2023/05/13 05:36:30;;;;;;;12.97;8.83;;;;;;;;;;5015069;28;20190;-63
2023/05/13 05:38:57;;;;;;;21.43;8.37;;;;;;;;;;4990210;28;20840;-64
2023/05/13 05:41:29;;;;;;;19.40;8.33;;;;;;;;;;5004297;28;20914;-63
2023/05/13 05:43:56;;;;;;;17.00;9.37;;;;;;;;;;4999665;28;20198;-64
2023/05/13 05:46:24;;;;;;;19.67;10.00;;;;;;;;;;5025233;28;20290;-62
2023/05/13 05:48:51;;;;;;;14.07;9.23;;;;;;;;;;5008080;28;20206;-62
2023/05/13 05:51:19;;;;;;;15.30;9.27;;;;;;;;;;5007622;28;20201;-64
2023/05/13 05:53:46;;;;;;;14.70;9.33;;;;;;;;;;5007179;28;20373;-64
2023/05/13 05:56:14;;;;;;;22.13;9.97;;;;;;;;;;5007963;28;20284;-64
2023/05/13 05:58:43;;;;;;;13.60;9.50;;;;;;;;;;5007798;28;20191;-67
2023/05/13 06:01:10;;;;;;;16.37;8.57;;;;;;;;;;5008026;28;20188;-67
2023/05/13 06:03:37;;;;;;;19.40;9.07;;;;;;;;;;5005625;28;20200;-65
2023/05/13 06:06:04;;;;;;;14.37;6.73;;;;;;;;;;5017301;28;20234;-66
2023/05/13 06:08:32;;;;;;;15.50;7.77;;;;;;;;;;5021868;28;20200;-67
2023/05/13 06:10:59;;;;;;;12.07;7.20;;;;;;;;;;5008865;28;20662;-68
2023/05/13 06:13:26;;;;;;;8.40;5.90;;;;;;;;;;5011630;28;20271;-67
2023/05/13 06:15:54;;;;;;;15.57;6.83;;;;;;;;;;5009740;28;20183;-66
2023/05/13 06:18:21;;;;;;;11.00;6.50;;;;;;;;;;5028356;28;20287;-65
2023/05/13 06:20:48;;;;;;;10.43;6.13;;;;;;;;;;5028283;28;20218;-65
2023/05/13 06:23:17;;;;;;;11.87;6.27;;;;;;;;;;5009487;28;20243;-67
2023/05/13 06:25:43;;;;;;;8.73;4.60;;;;;;;;;;4991532;28;20195;-66
2023/05/13 06:28:10;;;;;;;6.13;3.77;;;;;;;;;;4976496;28;20204;-66
2023/05/13 06:30:37;;;;;;;7.27;4.17;;;;;;;;;;5026922;28;20210;-66
2023/05/13 06:33:04;;;;;;;5.30;3.50;;;;;;;;;;5010338;28;20732;-65
2023/05/13 06:35:31;;;;;;;7.13;2.80;;;;;;;;;;5029963;28;20733;-67
2023/05/13 06:38:00;;;;;;;5.30;2.63;;;;;;;;;;5011315;28;20215;-67
2023/05/13 06:40:27;;;;;;;4.83;2.53;;;;;;;;;;5005401;28;20286;-67
2023/05/13 06:42:55;;;;;;;4.17;2.53;;;;;;;;;;5045805;28;20606;-67
2023/05/13 06:45:28;;;;;;;6.27;2.33;;;;;;;;;;5011561;28;20733;-67
2023/05/13 06:47:55;;;;;;;6.33;2.87;;;;;;;;;;5003307;28;20196;-66
2023/05/13 06:50:21;;;;;;;4.93;2.47;;;;;;;;;;5031104;28;20188;-66
2023/05/13 06:52:49;;;;;;;3.53;2.67;;;;;;;;;;5033341;28;20191;-66
2023/05/13 06:55:17;;;;;;;5.17;2.70;;;;;;;;;;5025835;28;20219;-66
2023/05/13 06:57:46;;;;;;;6.50;2.93;;;;;;;;;;5033104;28;20198;-67
2023/05/13 07:00:13;;;;;;;3.33;2.57;;;;;;;;;;5020895;28;20267;-66
2023/05/13 07:02:40;;;;;;;4.67;2.50;;;;;;;;;;5015666;28;20195;-67
2023/05/13 07:05:08;;;;;;;4.07;2.60;;;;;;;;;;5033220;28;20191;-67
2023/05/13 07:07:36;;;;;;;4.93;2.70;;;;;;;;;;5015663;28;20191;-66
2023/05/13 07:10:03;;;;;;;4.53;2.97;;;;;;;;;;5015061;28;20211;-67
2023/05/13 07:12:30;;;;;;;6.03;2.93;;;;;;;;;;5033008;28;20215;-67
2023/05/13 07:14:57;;;;;;;5.50;2.63;;;;;;;;;;5015009;28;20220;-67
2023/05/13 07:17:23;;;;;;;3.93;2.50;;;;;;;;;;5028143;28;20602;-67
2023/05/13 07:19:51;;;;;;;4.10;2.77;;;;;;;;;;5032716;28;20221;-67
2023/05/13 07:22:18;;;;;;;4.03;2.70;;;;;;;;;;5018210;28;20244;-67
2023/05/13 07:24:44;;;;;;;4.30;2.57;;;;;;;;;;5015136;28;20331;-66
2023/05/13 07:27:11;;;;;;;5.43;2.70;;;;;;;;;;5033035;28;20202;-66
2023/05/13 07:29:38;;;;;;;4.90;2.33;;;;;;;;;;5032885;28;20640;-66
2023/05/13 07:32:05;;;;;;;4.47;2.57;;;;;;;;;;5032221;28;20226;-64
2023/05/13 07:34:31;;;;;;;4.33;2.87;;;;;;;;;;5021189;28;20559;-64
2023/05/13 07:36:58;;;;;;;4.30;2.90;;;;;;;;;;5032442;28;20195;-65
2023/05/13 07:39:25;;;;;;;6.27;2.60;;;;;;;;;;5032792;28;20625;-67
2023/05/13 07:41:52;;;;;;;3.60;2.40;;;;;;;;;;5029414;28;20292;-65
2023/05/13 07:44:19;;;;;;;4.93;2.70;;;;;;;;;;5019867;28;20199;-65
2023/05/13 07:46:46;;;;;;;5.57;2.60;;;;;;;;;;5032269;28;20200;-65
2023/05/13 07:49:16;;;;;;;3.60;2.90;;;;;;;;;;5032108;28;20215;-65
2023/05/13 07:51:43;;;;;;;6.03;2.77;;;;;;;;;;5032516;28;20194;-65
2023/05/13 07:54:09;;;;;;;4.17;2.60;;;;;;;;;;5026771;28;20691;-66
2023/05/13 07:56:42;;;;;;;4.37;2.70;;;;;;;;;;5009190;28;20229;-65
2023/05/13 07:59:11;;;;;;;5.50;2.70;;;;;;;;;;5027227;28;20187;-66
2023/05/13 08:01:38;;;;;;;6.00;2.73;;;;;;;;;;5027399;28;20270;-64
2023/05/13 08:04:05;;;;;;;8.13;3.00;;;;;;;;;;5009301;28;20290;-64
2023/05/13 08:06:32;;;;;;;6.10;2.60;;;;;;;;;;5027310;28;20184;-64
2023/05/13 08:09:00;;;;;;;4.47;2.33;;;;;;;;;;5026509;28;20270;-64
2023/05/13 08:11:27;;;;;;;5.20;2.10;;;;;;;;;;5017751;28;20196;-66
2023/05/13 08:13:54;;;;;;;5.07;2.03;;;;;;;;;;5021325;28;20295;-64
2023/05/13 08:16:21;;;;;;;5.50;2.60;;;;;;;;;;5009639;28;20305;-66
2023/05/13 08:18:48;;;;;;;4.77;2.53;;;;;;;;;;5027177;28;20192;-66
2023/05/13 08:21:15;;;;;;;7.50;2.73;;;;;;;;;;5027460;28;20276;-64
2023/05/13 08:23:41;;;;;;;3.50;2.20;;;;;;;;;;5026474;28;20227;-65
2023/05/13 08:26:12;;;;;;;3.80;2.23;;;;;;;;;;5026012;28;20346;-64
2023/05/13 08:28:39;;;;;;;12.43;2.67;;;;;;;;;;5026986;28;20222;-64
2023/05/13 08:31:05;;;;;;;6.57;2.57;;;;;;;;;;5026983;28;20566;-64
2023/05/13 08:33:33;;;;;;;5.00;2.30;;;;;;;;;;5026810;28;20199;-66
2023/05/13 08:36:00;;;;;;;3.40;2.20;;;;;;;;;;5026853;28;20292;-67
2023/05/13 08:38:26;;;;;;;4.37;2.57;;;;;;;;;;4992925;28;20199;-66
2023/05/13 08:40:54;;;;;;;2.17;1.77;;;;;;;;;;5027286;28;20192;-74
2023/05/13 08:43:21;;;;;;;3.63;1.90;;;;;;;;;;5027432;28;20235;-66
2023/05/13 08:45:49;;;;;;;3.30;2.30;;;;;;;;;;5009573;28;20190;-65
2023/05/13 08:48:17;;;;;;;5.70;2.40;;;;;;;;;;5010144;28;20196;-63
2023/05/13 08:50:44;;;;;;;7.27;2.40;;;;;;;;;;5021393;28;20690;-64
2023/05/13 08:53:10;;;;;;;6.57;2.20;;;;;;;;;;4988942;28;20192;-64
2023/05/13 08:55:38;;;;;;;3.70;2.23;;;;;;;;;;5006058;28;20251;-64
2023/05/13 08:58:05;;;;;;;4.43;2.33;;;;;;;;;;5026742;28;20673;-64
2023/05/13 09:00:33;;;;;;;5.07;2.50;;;;;;;;;;5025580;28;20286;-64
2023/05/13 09:03:02;;;;;;;3.17;2.13;;;;;;;;;;5016676;28;20278;-64
2023/05/13 09:05:30;;;;;;;4.93;2.27;;;;;;;;;;5024409;28;20634;-64
2023/05/13 09:07:57;;;;;;;4.47;2.10;;;;;;;;;;5010050;28;20716;-65
2023/05/13 09:10:25;;;;;;;4.27;2.07;;;;;;;;;;5008191;28;20191;-65
2023/05/13 09:12:55;;;;;;;5.93;2.47;;;;;;;;;;5009060;28;20195;-65
2023/05/13 09:15:25;;;;;;;3.90;2.27;;;;;;;;;;5025503;28;20214;-63
2023/05/13 09:17:52;;;;;;;3.20;1.83;;;;;;;;;;5026465;28;20172;-65
2023/05/13 09:20:19;;;;;;;2.30;2.10;;;;;;;;;;5019570;28;20656;-65
2023/05/13 09:22:49;;;;;;;2.63;2.20;;;;;;;;;;5026084;28;20257;-65
2023/05/13 09:25:16;;;;;;;4.37;2.20;;;;;;;;;;5025703;28;20218;-64
2023/05/13 09:27:47;;;;;;;2.93;1.80;;;;;;;;;;5008384;28;20184;-64
2023/05/13 09:30:13;;;;;;;4.83;2.20;;;;;;;;;;5024188;28;20207;-63
2023/05/13 09:32:41;;;;;;;5.27;2.27;;;;;;;;;;5027966;28;20290;-64
2023/05/13 09:35:17;;;;;;;2.67;2.20;;;;;;;;;;5010609;28;20214;-64
2023/05/13 09:37:46;;;;;;;4.40;2.53;;;;;;;;;;5026518;28;20663;-64
2023/05/13 09:40:13;;;;;;;5.27;1.93;;;;;;;;;;5027303;28;20195;-64
2023/05/13 09:42:43;;;;;;;5.47;2.30;;;;;;;;;;5027051;28;20196;-65
2023/05/13 09:45:13;;;;;;;5.40;2.23;;;;;;;;;;5031175;28;20261;-65
2023/05/13 09:47:40;;;;;;;5.37;2.10;;;;;;;;;;5033655;28;20202;-65
2023/05/13 09:50:07;;;;;;;3.43;1.90;;;;;;;;;;5015195;28;20294;-65
2023/05/13 09:52:34;;;;;;;3.17;2.10;;;;;;;;;;5040922;28;20191;-66
2023/05/13 09:55:03;;;;;;;3.30;2.20;;;;;;;;;;5030070;28;20215;-65
2023/05/13 09:57:30;;;;;;;3.10;1.70;;;;;;;;;;5029012;28;20295;-66
2023/05/13 09:59:57;;;;;;;6.47;2.17;;;;;;;;;;5030605;28;20283;-66
2023/05/13 10:02:26;;;;;;;6.53;2.40;;;;;;;;;;5029980;28;20218;-66
2023/05/13 10:04:55;;;;;;;5.63;1.90;;;;;;;;;;5032285;28;20598;-73
2023/05/13 10:07:25;;;;;;;10.33;2.23;;;;;;;;;;5019118;28;20207;-69
2023/05/13 10:09:53;;;;;;;2.57;1.90;;;;;;;;;;5020568;28;20211;-69
2023/05/13 10:12:21;;;;;;;4.53;2.10;;;;;;;;;;5026514;28;20188;-68
2023/05/13 10:14:50;;;;;;;4.30;2.13;;;;;;;;;;4993727;28;20199;-68
2023/05/13 10:17:22;;;;;;;4.07;2.33;;;;;;;;;;5013770;28;20558;-68
2023/05/13 10:19:49;;;;;;;5.10;2.40;;;;;;;;;;5013501;28;20270;-67
2023/05/13 10:22:36;;;;;;;5.17;2.17;;;;;;;;;;5028221;28;20187;-65
2023/05/13 10:25:03;;;;;;;12.07;2.73;;;;;;;;;;5008733;28;20187;-67
2023/05/13 10:27:31;;;;;;;3.60;2.20;;;;;;;;;;5008515;28;20188;-69
2023/05/13 10:29:58;;;;;;;4.07;2.27;;;;;;;;;;5004065;28;20291;-67
2023/05/13 10:32:29;;;;;;;4.17;2.27;;;;;;;;;;5025460;28;20310;-67
2023/05/13 10:34:57;;;;;;;5.60;2.30;;;;;;;;;;5030845;28;20199;-68
2023/05/13 10:37:33;;;;;;;7.60;2.53;;;;;;;;;;5045576;28;20672;-68
2023/05/13 10:40:10;;;;;;;3.30;2.40;;;;;;;;;;5013971;28;20973;-67
2023/05/13 10:42:39;;;;;;;5.00;2.10;;;;;;;;;;5028336;28;20261;-66
2023/05/13 10:45:06;;;;;;;7.07;2.30;;;;;;;;;;5014367;28;20191;-67
2023/05/13 10:47:33;;;;;;;2.93;2.20;;;;;;;;;;5031955;28;20794;-67
2023/05/13 10:50:04;;;;;;;3.20;2.30;;;;;;;;;;5014569;28;20562;-67
2023/05/13 10:52:40;;;;;;;4.67;2.20;;;;;;;;;;5013941;28;20723;-66
2023/05/13 10:55:08;;;;;;;3.43;2.00;;;;;;;;;;5025590;28;20215;-66
2023/05/13 10:57:37;;;;;;;4.50;2.00;;;;;;;;;;5009224;28;20199;-66
2023/05/13 11:00:16;;;;;;;2.90;2.20;;;;;;;;;;5022514;28;20218;-67
2023/05/13 11:02:43;;;;;;;3.50;2.07;;;;;;;;;;5024719;28;20218;-67
2023/05/13 11:05:17;;;;;;;3.73;1.87;;;;;;;;;;5026380;28;20187;-67
2023/05/13 11:07:53;;;;;;;5.20;2.20;;;;;;;;;;5019540;28;20196;-67
2023/05/13 11:10:23;;;;;;;5.70;2.37;;;;;;;;;;5022389;28;20263;-66
2023/05/13 11:13:25;;;;;;;3.70;2.00;;;;;;;;;;5017615;28;20224;-67
2023/05/13 11:15:53;;;;;;;4.83;2.10;;;;;;;;;;4940709;29;20221;-67
2023/05/13 11:18:27;;;;;;;3.20;2.20;;;;;;;;;;5004623;28;20208;-67
2023/05/13 11:20:55;;;;;;;5.67;2.07;;;;;;;;;;5021230;28;20187;-67
2023/05/13 11:23:22;;;;;;;4.60;2.10;;;;;;;;;;5020328;28;20274;-67
2023/05/13 11:26:07;;;;;;;5.63;2.50;;;;;;;;;;5020592;28;20198;-67
2023/05/13 11:28:57;;;;;;;4.57;1.93;;;;;;;;;;5021676;28;20278;-67
2023/05/13 11:31:24;;;;;;;4.07;2.70;;;;;;;;;;5018581;28;20194;-67
2023/05/13 11:34:08;;;;;;;7.30;2.37;;;;;;;;;;5021623;28;20241;-67
2023/05/13 11:36:39;;;;;;;3.47;2.00;;;;;;;;;;5019511;28;20261;-67
2023/05/13 11:39:10;;;;;;;7.73;2.27;;;;;;;;;;5023451;28;20191;-67
2023/05/13 11:41:39;;;;;;;7.07;2.20;;;;;;;;;;5022460;28;20197;-67
2023/05/13 11:44:07;;;;;;;4.70;2.60;;;;;;;;;;5023594;28;20185;-67
2023/05/13 11:46:35;;;;;;;9.50;2.80;;;;;;;;;;5020482;28;20559;-68
2023/05/13 11:49:02;;;;;;;3.60;2.03;;;;;;;;;;5020511;28;20281;-67
2023/05/13 11:51:32;;;;;;;5.97;2.70;;;;;;;;;;5028795;28;20241;-67
2023/05/13 11:54:02;;;;;;;6.37;3.30;;;;;;;;;;5002524;28;20288;-67
2023/05/13 11:56:29;;;;;;;3.40;2.07;;;;;;;;;;5044651;28;20213;-66
2023/05/13 11:59:12;;;;;;;5.67;2.20;;;;;;;;;;5027326;28;20257;-66
2023/05/13 12:01:39;;;;;;;3.53;2.50;;;;;;;;;;5017218;28;20350;-67
2023/05/13 12:04:06;;;;;;;7.83;2.27;;;;;;;;;;5039913;28;20197;-67
2023/05/13 12:06:33;;;;;;;7.07;2.27;;;;;;;;;;5046012;28;20183;-66
2023/05/13 12:09:04;;;;;;;4.23;2.10;;;;;;;;;;5027630;28;20187;-66
2023/05/13 12:11:33;;;;;;;4.83;1.93;;;;;;;;;;5040171;28;20588;-66
2023/05/13 12:14:00;;;;;;;4.50;2.27;;;;;;;;;;5034284;28;20218;-68
2023/05/13 12:16:27;;;;;;;3.40;2.10;;;;;;;;;;4992808;28;20258;-68
2023/05/13 12:18:55;;;;;;;5.57;2.30;;;;;;;;;;5023417;28;20194;-68
2023/05/13 12:21:22;;;;;;;5.07;2.00;;;;;;;;;;5040408;28;20215;-66
2023/05/13 12:23:48;;;;;;;4.27;2.20;;;;;;;;;;5036194;28;20219;-67
2023/05/13 12:26:15;;;;;;;4.73;2.20;;;;;;;;;;5045984;28;20222;-66
2023/05/13 12:28:42;;;;;;;5.17;2.23;;;;;;;;;;5032391;28;20275;-65
2023/05/13 12:31:14;;;;;;;3.30;2.00;;;;;;;;;;5032047;28;20214;-65
2023/05/13 12:33:48;;;;;;;6.27;2.30;;;;;;;;;;5037449;28;20201;-65
2023/05/13 12:36:45;;;;;;;3.33;2.13;;;;;;;;;;5045644;28;20228;-66
2023/05/13 12:39:18;;;;;;;6.37;2.27;;;;;;;;;;5025355;28;20189;-65
2023/05/13 12:41:49;;;;;;;4.40;2.20;;;;;;;;;;5041144;28;20193;-65
2023/05/13 12:44:16;;;;;;;6.97;2.17;;;;;;;;;;5031978;28;20257;-65
2023/05/13 12:46:49;;;;;;;3.80;2.10;;;;;;;;;;5024637;28;20647;-62
2023/05/13 12:49:21;;;;;;;4.07;2.00;;;;;;;;;;5040710;28;20203;-58
2023/05/13 12:51:48;;;;;;;5.27;2.30;;;;;;;;;;5026038;28;20202;-59
2023/05/13 12:54:16;;;;;;;3.43;2.50;;;;;;;;;;5029016;28;20194;-58
2023/05/13 12:56:44;;;;;;;4.70;2.53;;;;;;;;;;5019698;28;20219;-57
2023/05/13 12:59:13;;;;;;;4.83;2.07;;;;;;;;;;5010674;28;20204;-57
2023/05/13 13:01:41;;;;;;;4.07;2.07;;;;;;;;;;5034038;28;20558;-57
2023/05/13 13:04:08;;;;;;;3.40;1.93;;;;;;;;;;5037488;28;20241;-58
2023/05/13 13:06:35;;;;;;;5.17;2.30;;;;;;;;;;5045178;28;20341;-58
2023/05/13 13:09:04;;;;;;;4.43;2.70;;;;;;;;;;5026844;28;20188;-58
2023/05/13 13:11:30;;;;;;;5.60;2.13;;;;;;;;;;5038537;28;20193;-57
2023/05/13 13:13:57;;;;;;;4.43;2.30;;;;;;;;;;5033860;28;20681;-57
2023/05/13 13:16:24;;;;;;;3.67;2.30;;;;;;;;;;5027750;28;20205;-57
2023/05/13 13:18:51;;;;;;;4.73;2.33;;;;;;;;;;5047923;28;20195;-57
2023/05/13 13:21:21;;;;;;;5.57;2.20;;;;;;;;;;5030056;28;20932;-57
2023/05/13 13:23:48;;;;;;;5.57;2.60;;;;;;;;;;5040579;28;20241;-57
2023/05/13 13:26:15;;;;;;;4.87;2.50;;;;;;;;;;5042560;28;20261;-58
2023/05/13 13:28:42;;;;;;;5.23;2.70;;;;;;;;;;5031964;28;20205;-57
2023/05/13 13:31:10;;;;;;;6.53;2.70;;;;;;;;;;5043279;28;20241;-57
2023/05/13 13:33:37;;;;;;;6.17;2.70;;;;;;;;;;5033789;28;20191;-57
2023/05/13 13:36:04;;;;;;;9.60;3.03;;;;;;;;;;5026900;28;20203;-57
2023/05/13 13:38:31;;;;;;;6.07;2.90;;;;;;;;;;5012522;28;20263;-58
2023/05/13 13:41:01;;;;;;;7.30;3.20;;;;;;;;;;5034807;28;20194;-59
2023/05/13 13:43:27;;;;;;;5.67;3.43;;;;;;;;;;5036757;28;20192;-58
2023/05/13 13:45:54;;;;;;;9.27;3.70;;;;;;;;;;5037047;28;20195;-58
2023/05/13 13:48:21;;;;;;;7.73;3.20;;;;;;;;;;5039062;28;20279;-59
2023/05/13 13:50:51;;;;;;;6.90;3.30;;;;;;;;;;5044302;28;20191;-59
2023/05/13 13:53:18;;;;;;;8.63;3.50;;;;;;;;;;5036381;28;20195;-58
2023/05/13 13:55:46;;;;;;;5.13;2.50;;;;;;;;;;5036115;28;20212;-60
2023/05/13 13:58:13;;;;;;;9.07;2.90;;;;;;;;;;5032900;28;20207;-60
2023/05/13 14:00:40;;;;;;;7.73;2.70;;;;;;;;;;5026300;28;20205;-59
2023/05/13 14:03:06;;;;;;;5.73;3.50;;;;;;;;;;5033732;28;20203;-60
2023/05/13 14:05:33;;;;;;;9.20;2.90;;;;;;;;;;5017154;28;20272;-60
2023/05/13 14:08:01;;;;;;;6.73;3.10;;;;;;;;;;5043551;28;20251;-61
2023/05/13 14:10:28;;;;;;;6.23;3.00;;;;;;;;;;5030302;28;20201;-61
2023/05/13 14:12:54;;;;;;;7.30;3.00;;;;;;;;;;5040478;28;20217;-61
2023/05/13 14:15:23;;;;;;;4.17;2.43;;;;;;;;;;5026543;28;20200;-60
2023/05/13 14:17:49;;;;;;;9.57;3.30;;;;;;;;;;5024557;28;20203;-60
2023/05/13 14:20:16;;;;;;;10.10;3.13;;;;;;;;;;5028323;28;20679;-60
2023/05/13 14:22:43;;;;;;;4.10;2.67;;;;;;;;;;5026619;28;20241;-61
2023/05/13 14:25:10;;;;;;;6.63;2.80;;;;;;;;;;5027689;28;20191;-61
2023/05/13 14:27:37;;;;;;;5.33;2.70;;;;;;;;;;5028175;28;20203;-61
2023/05/13 14:30:05;;;;;;;7.23;2.77;;;;;;;;;;5025762;28;20198;-61
2023/05/13 14:32:32;;;;;;;5.53;2.50;;;;;;;;;;5012904;28;20278;-60
2023/05/13 14:34:59;;;;;;;8.77;2.70;;;;;;;;;;5030465;28;20722;-60
2023/05/13 14:37:27;;;;;;;5.27;2.47;;;;;;;;;;5012807;28;20301;-61
2023/05/13 14:39:55;;;;;;;7.77;3.07;;;;;;;;;;5006706;28;20187;-62
2023/05/13 14:42:22;;;;;;;3.97;2.87;;;;;;;;;;5031174;28;20964;-61
2023/05/13 14:44:48;;;;;;;6.47;2.83;;;;;;;;;;5029657;28;20187;-60
2023/05/13 14:47:15;;;;;;;6.50;2.97;;;;;;;;;;5030176;28;20202;-61
2023/05/13 14:49:42;;;;;;;7.20;2.90;;;;;;;;;;5031469;28;20650;-59
2023/05/13 14:52:09;;;;;;;3.50;2.67;;;;;;;;;;5031590;28;20208;-59
2023/05/13 14:54:36;;;;;;;7.53;3.20;;;;;;;;;;5039174;28;20255;-59
2023/05/13 14:57:04;;;;;;;6.37;2.73;;;;;;;;;;5042030;28;20234;-60
2023/05/13 14:59:31;;;;;;;6.87;2.80;;;;;;;;;;5013716;28;20187;-59
2023/05/13 15:02:01;;;;;;;5.23;2.93;;;;;;;;;;5028796;28;20218;-59
2023/05/13 15:04:28;;;;;;;4.47;2.90;;;;;;;;;;5033327;28;20527;-59
2023/05/13 15:06:55;;;;;;;8.50;2.73;;;;;;;;;;5021165;28;20641;-59
2023/05/13 15:09:21;;;;;;;7.00;2.57;;;;;;;;;;5033274;28;20202;-59
2023/05/13 15:11:48;;;;;;;4.87;2.60;;;;;;;;;;5040301;28;20217;-59